CheckWX is a tool to help pilots better visualize weather data.  It is not intended as a substitute for an official pre-flight weather briefing.

06:44:22 UTC

GVAC TAF
Amílcar Cabral International Airport
Espargos, Cape Verde
TAF GVAC 160500Z 1606/1712 03016KT 9999 FEW014

Jun-16@
06:00 UTC

Jun-16 @ 06:00 UTC

Jun-17@
12:00 UTC

Jun-17 @ 12:00 UTC

TAF GVAC 160500Z 1606/1712 03016KT 9999 FEW014
Wind
  • 030° at 16 KTS
Cloud Levels
  • Few at 1,400' AGL